Time;durP1;ratioP1;P1;durP2;ratioP2;P2;SDS_P1;SDS_P2;PMS_P1;PMS_P2;Temp;Humidity;BMP_temperature;BMP_pressure;BME280_temperature;BME280_humidity;BME280_pressure;Samples;Min_cycle;Max_cycle;Signal;HPM_P1;HPM_P2
2022/10/02 00:00:18;;;;;;;1.80;1.00;;;12.50;99.90;;;;;;5034492;28;20037;-85
2022/10/02 00:02:53;;;;;;;2.85;0.80;;;12.40;99.90;;;;;;5034450;28;20048;-85
2022/10/02 00:05:33;;;;;;;1.60;0.75;;;12.50;99.90;;;;;;5034756;28;20479;-85
2022/10/02 00:08:10;;;;;;;2.45;1.10;;;12.50;99.90;;;;;;5017028;28;20026;-85
2022/10/02 00:11:06;;;;;;;3.15;0.75;;;12.40;99.90;;;;;;5017394;28;20034;-86
2022/10/02 00:14:03;;;;;;;2.88;0.93;;;12.50;99.90;;;;;;5034273;28;20128;-86
2022/10/02 00:16:40;;;;;;;2.00;1.08;;;12.50;99.90;;;;;;5033045;28;20037;-85
2022/10/02 00:19:10;;;;;;;3.50;2.22;;;12.40;99.90;;;;;;5016768;28;20029;-86
2022/10/02 00:22:13;;;;;;;3.55;1.35;;;12.40;99.90;;;;;;5034515;28;20033;-85
2022/10/02 00:24:45;;;;;;;2.55;1.05;;;12.40;99.90;;;;;;5024961;28;20043;-85
2022/10/02 00:27:16;;;;;;;2.90;0.90;;;12.40;99.90;;;;;;5034834;28;20017;-86
2022/10/02 00:29:51;;;;;;;2.45;0.90;;;12.40;99.90;;;;;;5016693;28;20033;-85
2022/10/02 00:32:26;;;;;;;2.05;0.98;;;12.30;99.90;;;;;;5016943;28;20033;-85
2022/10/02 00:35:23;;;;;;;4.47;1.00;;;12.30;99.90;;;;;;5016849;28;20029;-86
2022/10/02 00:38:00;;;;;;;4.07;1.17;;;12.30;99.90;;;;;;5031721;28;20036;-84
2022/10/02 00:40:44;;;;;;;2.45;0.80;;;12.30;99.90;;;;;;5016369;28;20437;-85
2022/10/02 00:43:27;;;;;;;2.30;0.73;;;12.30;99.90;;;;;;5016627;28;20048;-85
2022/10/02 00:46:11;;;;;;;3.78;0.90;;;12.30;99.90;;;;;;5015919;28;20548;-87
2022/10/02 00:48:37;;;;;;;2.22;0.73;;;12.20;99.90;;;;;;5017262;28;20060;-90
2022/10/02 00:51:02;;;;;;;;;;;12.20;99.90;;;;;;5042196;28;20504;-85
2022/10/02 00:54:00;;;;;;;2.35;0.80;;;12.20;99.90;;;;;;5054107;28;19959;-85
2022/10/02 00:56:52;;;;;;;2.13;0.60;;;12.20;99.90;;;;;;5053141;28;20547;-87
2022/10/02 00:59:50;;;;;;;7.28;0.82;;;12.20;99.90;;;;;;5053284;28;20025;-87
2022/10/02 01:02:25;;;;;;;1.60;0.68;;;12.20;99.90;;;;;;5052599;28;20037;-87
2022/10/02 01:04:52;;;;;;;5.43;0.82;;;12.10;99.90;;;;;;5053024;28;20409;-87
2022/10/02 01:07:18;;;;;;;3.53;1.23;;;12.10;99.90;;;;;;5052920;28;20086;-87
2022/10/02 01:09:44;;;;;;;4.07;1.25;;;12.10;99.90;;;;;;5052630;28;20024;-85
2022/10/02 01:12:10;;;;;;;8.70;1.15;;;12.10;99.90;;;;;;5052019;28;20037;-86
2022/10/02 01:14:40;;;;;;;2.58;1.13;;;12.00;99.90;;;;;;5052199;28;20167;-84
2022/10/02 01:17:20;;;;;;;2.95;1.17;;;12.00;99.90;;;;;;5052296;28;20028;-85
2022/10/02 01:19:45;;;;;;;3.47;1.15;;;11.90;99.90;;;;;;5052145;28;20025;-85
2022/10/02 01:22:14;;;;;;;;;;;11.90;99.90;;;;;;5052171;28;20029;-84
2022/10/02 01:24:59;;;;;;;;;;;11.90;99.90;;;;;;5053352;28;19912;-85
2022/10/02 01:27:25;;;;;;;;;;;11.80;99.90;;;;;;5051961;28;19904;-85
2022/10/02 01:29:58;;;;;;;;;;;11.80;99.90;;;;;;5051323;28;19905;-84
2022/10/02 01:32:25;;;;;;;;;;;11.80;99.90;;;;;;5051533;28;19913;-85
2022/10/02 01:34:51;;;;;;;;;;;11.80;99.90;;;;;;5052087;28;20316;-85
2022/10/02 01:37:17;;;;;;;;;;;11.80;99.90;;;;;;5053097;28;19912;-85
2022/10/02 01:39:43;;;;;;;;;;;11.70;99.90;;;;;;5052069;28;20149;-84
2022/10/02 01:42:08;;;;;;;;;;;11.70;99.90;;;;;;5051846;28;20010;-84
2022/10/02 01:44:34;;;;;;;;;;;11.70;99.90;;;;;;5051207;28;19909;-85
2022/10/02 01:47:03;;;;;;;;;;;11.70;99.90;;;;;;5049139;28;19915;-85
2022/10/02 01:49:52;;;;;;;;;;;11.70;99.90;;;;;;5056069;28;19905;-87
2022/10/02 01:52:21;;;;;;;;;;;11.70;99.90;;;;;;5063788;28;20011;-86
2022/10/02 01:54:49;;;;;;;;;;;11.70;99.90;;;;;;5052043;28;20288;-86
2022/10/02 01:57:22;;;;;;;;;;;11.70;99.90;;;;;;5051937;28;19909;-86
2022/10/02 01:59:51;;;;;;;;;;;11.60;99.90;;;;;;5052058;28;20361;-86
2022/10/02 02:02:51;;;;;;;;;;;11.70;99.90;;;;;;5053190;28;19948;-86
2022/10/02 02:05:20;;;;;;;;;;;11.60;99.90;;;;;;5011381;28;19905;-86
2022/10/02 02:07:51;;;;;;;;;;;11.60;99.90;;;;;;5044613;28;19905;-85
2022/10/02 02:10:36;;;;;;;;;;;11.60;99.90;;;;;;5051705;28;19904;-85
2022/10/02 02:13:09;;;;;;;;;;;11.60;99.90;;;;;;5052762;28;19920;-86
2022/10/02 02:15:54;;;;;;;;;;;11.60;99.90;;;;;;5052612;28;19904;-85
2022/10/02 02:18:32;;;;;;;;;;;11.60;99.90;;;;;;5051551;28;20289;-85
2022/10/02 02:21:04;;;;;;;;;;;11.60;99.90;;;;;;5051747;28;19966;-85
2022/10/02 02:23:32;;;;;;;;;;;11.60;99.90;;;;;;5051954;28;19904;-85
2022/10/02 02:26:01;;;;;;;;;;;11.70;99.90;;;;;;5052934;28;19951;-85
2022/10/02 02:28:28;;;;;;;;;;;11.60;99.90;;;;;;5052328;28;19905;-87
2022/10/02 02:30:54;;;;;;;;;;;11.70;99.90;;;;;;5051370;28;19986;-88
2022/10/02 02:33:22;;;;;;;;;;;11.60;99.90;;;;;;5052574;28;19912;-88
2022/10/02 02:35:50;;;;;;;;;;;11.60;99.90;;;;;;5052911;28;19932;-88
2022/10/02 02:38:23;;;;;;;;;;;11.60;99.90;;;;;;5053916;28;20011;-88
2022/10/02 02:40:50;;;;;;;;;;;11.50;99.90;;;;;;5056048;28;19938;-85
2022/10/02 02:43:19;;;;;;;;;;;11.40;99.90;;;;;;5063209;28;19905;-88
2022/10/02 02:45:53;;;;;;;;;;;11.30;99.90;;;;;;5058085;28;19916;-85
2022/10/02 02:48:21;;;;;;;;;;;11.20;99.90;;;;;;5053122;28;19904;-85
2022/10/02 02:50:50;;;;;;;;;;;11.10;99.90;;;;;;5051371;28;19917;-85
2022/10/02 02:53:22;;;;;;;;;;;11.00;99.90;;;;;;5051976;28;19916;-89
2022/10/02 02:55:52;;;;;;;;;;;10.90;99.90;;;;;;5051923;28;19905;-86
2022/10/02 02:58:27;;;;;;;;;;;10.90;99.90;;;;;;5051999;28;19948;-86
2022/10/02 03:00:53;;;;;;;;;;;10.80;99.90;;;;;;5051687;28;19905;-86
2022/10/02 03:03:18;;;;;;;;;;;10.70;99.90;;;;;;5051740;28;20346;-86
2022/10/02 03:05:46;;;;;;;;;;;10.60;99.90;;;;;;5052024;28;19913;-87
2022/10/02 03:08:22;;;;;;;;;;;10.60;99.90;;;;;;5051271;28;19905;-85
2022/10/02 03:10:48;;;;;;;;;;;10.50;99.90;;;;;;5056094;28;19909;-87
2022/10/02 03:13:26;;;;;;;;;;;10.50;99.90;;;;;;5055095;28;19935;-85
2022/10/02 03:15:54;;;;;;;;;;;10.50;99.90;;;;;;5055022;28;19990;-84
2022/10/02 03:18:20;;;;;;;;;;;10.50;99.90;;;;;;5055038;28;19904;-85
2022/10/02 03:21:08;;;;;;;;;;;10.60;99.90;;;;;;5054804;28;20012;-85
2022/10/02 03:23:34;;;;;;;;;;;10.60;99.90;;;;;;5043162;28;19913;-83
2022/10/02 03:26:07;;;;;;;;;;;10.70;99.90;;;;;;5054664;28;19959;-87
2022/10/02 03:28:35;;;;;;;;;;;10.70;99.90;;;;;;5055154;28;19905;-86
2022/10/02 03:31:01;;;;;;;;;;;10.70;99.90;;;;;;5054960;28;19905;-86
2022/10/02 03:33:27;;;;;;;;;;;10.80;99.90;;;;;;5054673;28;19913;-86
2022/10/02 03:35:52;;;;;;;;;;;10.90;99.90;;;;;;5054936;28;20277;-86
2022/10/02 03:38:20;;;;;;;;;;;10.90;99.90;;;;;;5054966;28;20007;-85
2022/10/02 03:40:45;;;;;;;;;;;10.90;99.90;;;;;;5056173;28;19932;-85
2022/10/02 03:43:18;;;;;;;;;;;10.90;99.90;;;;;;5055994;28;20015;-87
2022/10/02 03:45:43;;;;;;;;;;;11.00;99.90;;;;;;5055907;28;19943;-86
2022/10/02 03:48:09;;;;;;;;;;;11.00;99.90;;;;;;5055730;28;19956;-86
2022/10/02 03:50:34;;;;;;;;;;;11.00;99.90;;;;;;5047264;28;19925;-86
2022/10/02 03:53:00;;;;;;;;;;;11.00;99.90;;;;;;5035228;28;19920;-86
2022/10/02 03:55:34;;;;;;;;;;;11.00;99.90;;;;;;5017711;28;20282;-85
2022/10/02 03:58:02;;;;;;;;;;;11.00;99.90;;;;;;5018949;28;19912;-85
2022/10/02 04:00:31;;;;;;;;;;;11.10;99.90;;;;;;5017781;28;19905;-86
2022/10/02 04:03:01;;;;;;;;;;;11.00;99.90;;;;;;5017759;28;20348;-83
2022/10/02 04:05:39;;;;;;;;;;;11.00;99.90;;;;;;5017889;28;20320;-85
2022/10/02 04:08:17;;;;;;;;;;;11.10;99.90;;;;;;5017726;28;19905;-85
2022/10/02 04:10:59;;;;;;;;;;;11.00;99.90;;;;;;5015104;28;19916;-87
2022/10/02 04:13:37;;;;;;;;;;;11.00;99.90;;;;;;5016307;28;20339;-88
2022/10/02 04:16:12;;;;;;;;;;;11.00;99.90;;;;;;5017489;28;19912;-86
2022/10/02 04:18:40;;;;;;;;;;;11.00;99.90;;;;;;5017313;28;19905;-85
2022/10/02 04:21:12;;;;;;;;;;;11.00;99.90;;;;;;5016206;28;20222;-86
2022/10/02 04:23:54;;;;;;;;;;;10.90;99.90;;;;;;5017198;28;19909;-86
2022/10/02 04:26:22;;;;;;;;;;;10.90;99.90;;;;;;5017774;28;19909;-86
2022/10/02 04:28:51;;;;;;;;;;;10.90;99.90;;;;;;5018145;28;19905;-86
2022/10/02 04:31:17;;;;;;;;;;;10.90;99.90;;;;;;5019073;28;19939;-85
2022/10/02 04:33:42;;;;;;;;;;;10.90;99.90;;;;;;5035294;28;19920;-85
2022/10/02 04:36:37;;;;;;;;;;;11.00;99.90;;;;;;5016133;28;19915;-86
2022/10/02 04:39:03;;;;;;;;;;;11.00;99.90;;;;;;4963938;28;19965;-87
2022/10/02 04:41:47;;;;;;;;;;;11.00;99.90;;;;;;5019370;28;19952;-85
2022/10/02 04:44:31;;;;;;;;;;;10.90;99.90;;;;;;5033759;28;19912;-86
2022/10/02 04:47:11;;;;;;;;;;;11.00;99.90;;;;;;5016663;28;19905;-88
2022/10/02 04:49:55;;;;;;;;;;;11.00;99.90;;;;;;5016978;28;19905;-85
2022/10/02 04:52:27;;;;;;;;;;;10.90;99.90;;;;;;5016995;28;19913;-86
2022/10/02 04:55:18;;;;;;;;;;;11.00;99.90;;;;;;5016876;28;19905;-86
2022/10/02 04:58:03;;;;;;;;;;;10.90;99.90;;;;;;5003507;28;20451;-88
2022/10/02 05:00:32;;;;;;;;;;;11.00;99.90;;;;;;5034451;28;19909;-87
2022/10/02 05:03:10;;;;;;;;;;;11.00;99.90;;;;;;5034019;28;19912;-86
2022/10/02 05:05:56;;;;;;;;;;;11.00;99.90;;;;;;5016775;28;19905;-88
2022/10/02 05:08:41;;;;;;;;;;;11.00;99.90;;;;;;5032858;28;19951;-87
2022/10/02 05:11:17;;;;;;;;;;;11.10;99.90;;;;;;5016748;28;19991;-88
2022/10/02 05:13:43;;;;;;;;;;;11.10;99.90;;;;;;5033995;28;19921;-87
2022/10/02 05:16:27;;;;;;;;;;;11.20;99.90;;;;;;5015545;28;19909;-83
2022/10/02 05:19:13;;;;;;;;;;;11.30;99.90;;;;;;5032942;28;19905;-84
2022/10/02 05:21:44;;;;;;;;;;;11.40;99.90;;;;;;5031879;28;19952;-85
2022/10/02 05:24:13;;;;;;;;;;;11.40;99.90;;;;;;5015122;28;19948;-86
2022/10/02 05:26:53;;;;;;;;;;;11.40;99.90;;;;;;5033020;28;20051;-87
2022/10/02 05:29:19;;;;;;;;;;;11.50;99.90;;;;;;5015516;28;19909;-87
2022/10/02 05:32:16;;;;;;;;;;;11.50;99.90;;;;;;5032105;28;19953;-82
2022/10/02 05:34:51;;;;;;;;;;;11.60;99.90;;;;;;4988716;28;19920;-85
2022/10/02 05:37:27;;;;;;;;;;;11.60;99.90;;;;;;5013421;28;20000;-84
2022/10/02 05:40:11;;;;;;;;;;;11.70;99.90;;;;;;5015024;28;19909;-86
2022/10/02 05:42:49;;;;;;;;;;;11.70;99.90;;;;;;5025702;28;19962;-87
2022/10/02 05:45:15;;;;;;;;;;;11.80;99.90;;;;;;5031249;28;19911;-86
2022/10/02 05:47:43;;;;;;;;;;;11.90;99.90;;;;;;5015392;28;19905;-85
2022/10/02 05:50:20;;;;;;;;;;;12.00;99.90;;;;;;5031704;28;20391;-85
2022/10/02 05:52:57;;;;;;;;;;;12.10;99.90;;;;;;5014382;28;19917;-86
2022/10/02 05:55:36;;;;;;;;;;;12.10;99.90;;;;;;5034636;28;19905;-86
2022/10/02 05:58:05;;;;;;;;;;;12.30;99.90;;;;;;5029848;28;19909;-84
2022/10/02 06:00:40;;;;;;;;;;;12.40;99.90;;;;;;5033314;28;19905;-86
2022/10/02 06:03:21;;;;;;;;;;;12.50;99.90;;;;;;5032404;28;19912;-86
2022/10/02 06:05:58;;;;;;;;;;;12.70;99.90;;;;;;5015153;28;19905;-86
2022/10/02 06:08:29;;;;;;;;;;;12.80;99.90;;;;;;5015213;28;19909;-86
2022/10/02 06:10:58;;;;;;;;;;;12.90;99.90;;;;;;5015509;28;19912;-88
2022/10/02 06:13:34;;;;;;;;;;;13.10;99.90;;;;;;5015311;28;19921;-84
2022/10/02 06:16:32;;;;;;;;;;;13.40;99.90;;;;;;5031829;28;20321;-83
2022/10/02 06:19:01;;;;;;;;;;;13.70;99.90;;;;;;4986978;28;19999;-83
2022/10/02 06:21:30;;;;;;;;;;;14.30;99.90;;;;;;5030507;28;19905;-82
2022/10/02 06:23:57;;;;;;;;;;;14.80;99.90;;;;;;5031791;28;19905;-90
2022/10/02 06:26:31;;;;;;;;;;;15.40;99.90;;;;;;5033762;28;20432;-88
2022/10/02 06:29:01;;;;;;;;;;;16.00;99.90;;;;;;5033357;28;19905;-88
2022/10/02 06:31:29;;;;;;;;;;;16.70;99.90;;;;;;5015997;28;19905;-87
2022/10/02 06:33:56;;;;;;;;;;;17.30;99.90;;;;;;5032926;28;19975;-89
2022/10/02 06:36:28;;;;;;;;;;;17.90;99.90;;;;;;5033465;28;19905;-88
2022/10/02 06:39:05;;;;;;;;;;;18.20;99.90;;;;;;5033352;28;19916;-89
2022/10/02 06:41:31;;;;;;;;;;;18.60;99.90;;;;;;5031040;28;19909;-89
2022/10/02 06:44:12;;;;;;;;;;;19.00;99.90;;;;;;5031368;28;19984;-90
2022/10/02 06:46:45;;;;;;;;;;;19.40;99.90;;;;;;5037384;28;19909;-88
2022/10/02 06:49:29;;;;;;;;;;;19.90;99.90;;;;;;5037256;28;19905;-89
2022/10/02 06:52:13;;;;;;;;;;;20.20;99.90;;;;;;5037023;28;19956;-90
2022/10/02 06:54:38;;;;;;;;;;;20.50;99.90;;;;;;5019838;28;19913;-89
2022/10/02 06:57:16;;;;;;;;;;;20.70;99.90;;;;;;5019682;28;19935;-89
2022/10/02 07:00:00;;;;;;;;;;;21.00;99.90;;;;;;5037114;28;19905;-90
2022/10/02 07:02:44;;;;;;;;;;;21.30;99.90;;;;;;5056229;28;19904;-90
2022/10/02 07:05:29;;;;;;;;;;;21.50;99.30;;;;;;5039354;28;19904;-89
2022/10/02 07:08:21;;;;;;;;;;;21.70;98.80;;;;;;5039141;28;19909;-89
2022/10/02 07:10:51;;;;;;;;;;;21.60;98.90;;;;;;5056908;28;19932;-89
2022/10/02 07:13:40;;;;;;;;;;;21.50;98.40;;;;;;5038901;28;19924;-88
2022/10/02 07:16:26;;;;;;;;;;;21.20;98.60;;;;;;5046070;28;19908;-89
2022/10/02 07:18:54;;;;;;;;;;;20.80;99.20;;;;;;5037055;28;19944;-90
2022/10/02 07:21:37;;;;;;;;;;;20.20;99.90;;;;;;5039144;28;20359;-89
2022/10/02 07:24:03;;;;;;;;;;;19.70;99.90;;;;;;5056612;28;19960;-89
2022/10/02 07:26:43;;;;;;;;;;;19.60;99.90;;;;;;5056460;28;20392;-89
2022/10/02 07:29:16;;;;;;;;;;;19.20;99.90;;;;;;5038660;28;19916;-88
2022/10/02 07:32:00;;;;;;;;;;;19.00;99.90;;;;;;5038654;28;19926;-88
2022/10/02 07:34:28;;;;;;;;;;;18.80;99.90;;;;;;5038668;28;19924;-89
2022/10/02 07:36:57;;;;;;;;;;;18.70;99.90;;;;;;5038462;28;19970;-88
2022/10/02 07:39:31;;;;;;;;;;;18.60;99.90;;;;;;5038809;28;19904;-88
2022/10/02 07:42:15;;;;;;;;;;;18.60;99.90;;;;;;5038345;28;19923;-89
2022/10/02 07:44:43;;;;;;;;;;;18.60;99.90;;;;;;5038929;28;19944;-88
2022/10/02 07:47:12;;;;;;;;;;;18.50;99.90;;;;;;5044013;28;19908;-88
2022/10/02 07:49:37;;;;;;;;;;;18.40;99.90;;;;;;5037399;28;19968;-89
2022/10/02 07:52:03;;;;;;;;;;;18.40;99.90;;;;;;5038216;28;20353;-88
2022/10/02 07:54:35;;;;;;;;;;;18.40;99.90;;;;;;5038193;28;19912;-88
2022/10/02 07:57:11;;;;;;;;;;;18.50;99.90;;;;;;5038506;28;20250;-88
2022/10/02 07:59:38;;;;;;;;;;;18.60;99.90;;;;;;5038459;28;19944;-88
2022/10/02 08:02:05;;;;;;;;;;;18.70;99.90;;;;;;5038204;28;19916;-90
2022/10/02 08:04:32;;;;;;;;;;;19.10;99.90;;;;;;5037948;28;20003;-88
2022/10/02 08:07:00;;;;;;;;;;;19.60;99.90;;;;;;5038102;28;20378;-90
2022/10/02 08:09:34;;;;;;;;;;;20.40;99.90;;;;;;5038299;28;19904;-90
2022/10/02 08:12:05;;;;;;;;;;;21.10;99.90;;;;;;5037825;28;19905;-88
2022/10/02 08:14:30;;;;;;;;;;;21.80;98.00;;;;;;5037769;28;19978;-89
2022/10/02 08:16:59;;;;;;;;;;;22.10;96.80;;;;;;5037793;28;20369;-89
2022/10/02 08:19:35;;;;;;;;;;;22.40;95.70;;;;;;5037909;28;20308;-88
2022/10/02 08:22:08;;;;;;;;;;;22.70;95.00;;;;;;5038282;28;19970;-90
2022/10/02 08:24:39;;;;;;;;;;;23.10;93.90;;;;;;5038290;28;19908;-89
2022/10/02 08:27:12;;;;;;;;;;;23.30;93.20;;;;;;5056261;28;20468;-89
2022/10/02 08:29:43;;;;;;;;;;;23.70;92.50;;;;;;5055627;28;19935;-88
2022/10/02 08:32:10;;;;;;;;;;;24.00;89.20;;;;;;5037580;28;20369;-90
2022/10/02 08:34:36;;;;;;;;;;;24.20;88.30;;;;;;5037710;28;20007;-88
2022/10/02 08:37:04;;;;;;;;;;;24.50;85.90;;;;;;5065676;28;19904;-88
2022/10/02 08:39:49;;;;;;;;;;;24.80;84.50;;;;;;5056163;28;19909;-89
2022/10/02 08:42:22;;;;;;;;;;;24.90;81.20;;;;;;5041756;28;19911;-88
2022/10/02 08:45:06;;;;;;;;;;;25.00;78.90;;;;;;5038616;28;20095;-89
2022/10/02 08:47:35;;;;;;;;;;;25.10;78.50;;;;;;5037459;28;19948;-88
2022/10/02 08:50:21;;;;;;;;;;;25.30;75.00;;;;;;5040800;28;19920;-88
2022/10/02 08:53:06;;;;;;;;;;;25.30;73.20;;;;;;5073170;28;19913;-89
2022/10/02 08:55:53;;;;;;;;;;;25.30;72.80;;;;;;5073753;28;19915;-89
2022/10/02 08:58:30;;;;;;;;;;;25.50;72.00;;;;;;5073586;28;19904;-89
2022/10/02 09:01:02;;;;;;;;;;;25.40;71.60;;;;;;5073644;28;19905;-89
2022/10/02 09:03:34;;;;;;;;;;;25.40;70.10;;;;;;5073885;28;19998;-89
2022/10/02 09:06:18;;;;;;;;;;;25.50;69.90;;;;;;5073464;28;19998;-89
2022/10/02 09:09:06;;;;;;;;;;;25.70;69.40;;;;;;5073508;28;20526;-89
2022/10/02 09:11:50;;;;;;;;;;;25.90;67.80;;;;;;5070686;28;19908;-88
2022/10/02 09:14:36;;;;;;;;;;;26.40;64.80;;;;;;5072279;28;19916;-88
2022/10/02 09:17:10;;;;;;;;;;;26.40;63.30;;;;;;5078775;28;19962;-90
2022/10/02 09:20:03;;;;;;;;;;;25.50;65.50;;;;;;5080377;28;19927;-88
2022/10/02 09:22:34;;;;;;;;;;;24.50;67.40;;;;;;5073306;28;19936;-87
2022/10/02 09:25:13;;;;;;;;;;;23.80;69.00;;;;;;5073358;28;19912;-88
2022/10/02 09:27:45;;;;;;;;;;;23.20;69.10;;;;;;5073174;28;19908;-87
2022/10/02 09:30:18;;;;;;;;;;;22.60;72.20;;;;;;5072949;28;19908;-88
2022/10/02 09:32:43;;;;;;;;;;;22.20;73.00;;;;;;5074250;28;19977;-88
2022/10/02 09:35:27;;;;;;;;;;;21.60;74.70;;;;;;5072944;28;19908;-88
2022/10/02 09:38:13;;;;;;;;;;;21.80;76.20;;;;;;5073825;28;19958;-88
2022/10/02 09:40:38;;;;;;;;;;;22.60;75.00;;;;;;5073957;28;19904;-88
2022/10/02 09:43:04;;;;;;;;;;;23.50;72.00;;;;;;5073887;28;19949;-88
2022/10/02 09:45:47;;;;;;;;;;;23.80;70.90;;;;;;5072907;28;20381;-88
2022/10/02 09:48:22;;;;;;;;;;;23.90;70.50;;;;;;5072413;28;19915;-89
2022/10/02 09:51:06;;;;;;;;;;;23.80;69.20;;;;;;5072344;28;19938;-88
2022/10/02 09:53:58;;;;;;;;;;;23.90;70.80;;;;;;5072700;28;19946;-88
2022/10/02 09:56:23;;;;;;;;;;;24.10;71.70;;;;;;5072670;28;19912;-88
2022/10/02 09:58:58;;;;;;;;;;;23.80;72.00;;;;;;5072429;28;19945;-88
2022/10/02 10:01:23;;;;;;;;;;;23.20;73.20;;;;;;5072631;28;19908;-88
2022/10/02 10:04:08;;;;;;;;;;;22.50;76.50;;;;;;5072308;28;19953;-88
2022/10/02 10:06:46;;;;;;;;;;;22.00;78.60;;;;;;5072378;28;19939;-88
2022/10/02 10:09:15;;;;;;;;;;;21.50;80.60;;;;;;5072427;28;19904;-86
2022/10/02 10:11:46;;;;;;;;;;;21.10;81.80;;;;;;5072564;28;19946;-88
2022/10/02 10:14:12;;;;;;;;;;;20.80;83.30;;;;;;5071976;28;20300;-87
2022/10/02 10:16:46;;;;;;;;;;;20.60;85.30;;;;;;5072299;28;19995;-88
2022/10/02 10:19:21;;;;;;;;;;;20.50;87.30;;;;;;5072519;28;19987;-87
2022/10/02 10:21:49;;;;;;;;;;;20.40;88.30;;;;;;5072454;28;19973;-89
2022/10/02 10:24:47;;;;;;;;;;;20.60;87.40;;;;;;5072455;28;20000;-88
2022/10/02 10:27:32;;;;;;;;;;;20.70;87.90;;;;;;5049730;28;20701;-88
2022/10/02 10:30:00;;;;;;;;;;;20.60;89.80;;;;;;5073242;28;19905;-89
2022/10/02 10:32:43;;;;;;;;;;;20.40;90.30;;;;;;5071998;28;19904;-87
2022/10/02 10:35:15;;;;;;;;;;;20.10;90.30;;;;;;5072149;28;19904;-87
2022/10/02 10:40:53;;;;;;;;;;;20.00;90.20;;;;;;5073294;28;19950;-88
2022/10/02 10:43:24;;;;;;;;;;;20.00;90.10;;;;;;5073258;28;19950;-87
2022/10/02 10:46:02;;;;;;;;;;;19.90;89.10;;;;;;5072205;28;19908;-88
2022/10/02 10:48:31;;;;;;;;;;;19.80;90.30;;;;;;5073461;28;19904;-89
2022/10/02 10:51:16;;;;;;;;;;;19.80;89.70;;;;;;5077289;28;19939;-87
2022/10/02 10:53:57;;;;;;;;;;;19.80;90.80;;;;;;5070972;28;19931;-87
2022/10/02 10:56:24;;;;;;;;;;;19.70;90.30;;;;;;5072293;28;19957;-87
2022/10/02 10:59:07;;;;;;;;;;;19.60;90.60;;;;;;5072928;28;20429;-87
2022/10/02 11:01:45;;;;;;;;;;;19.50;90.70;;;;;;5072212;28;20387;-88
2022/10/02 11:04:29;;;;;;;;;;;19.40;90.80;;;;;;5073428;28;20725;-89
2022/10/02 11:07:06;;;;;;;;;;;19.30;90.90;;;;;;5073120;28;19908;-87
2022/10/02 11:09:38;;;;;;;;;;;19.10;89.80;;;;;;5072071;28;20270;-88
2022/10/02 11:12:22;;;;;;;;;;;18.80;91.00;;;;;;5071974;28;20327;-89
2022/10/02 11:14:53;;;;;;;;;;;18.60;90.80;;;;;;5071886;28;19965;-87
2022/10/02 11:17:38;;;;;;;;;;;18.50;91.70;;;;;;5071691;28;19911;-88
2022/10/02 11:20:23;;;;;;;;;;;18.50;92.80;;;;;;5072030;28;19915;-88
2022/10/02 11:23:07;;;;;;;;;;;18.80;93.80;;;;;;5071859;28;19959;-88
2022/10/02 11:25:38;;;;;;;;;;;19.10;93.40;;;;;;5071581;28;19912;-88
2022/10/02 11:28:07;;;;;;;;;;;19.50;92.50;;;;;;5072327;28;20004;-89
2022/10/02 11:30:36;;;;;;;;;;;19.60;92.00;;;;;;5073840;28;19987;-88
2022/10/02 11:33:01;;;;;;;;;;;19.90;92.50;;;;;;5080243;28;19939;-86
2022/10/02 11:35:27;;;;;;;;;;;20.10;91.20;;;;;;5086248;28;19908;-88
2022/10/02 11:38:00;;;;;;;;;;;20.20;89.60;;;;;;5085427;28;19963;-89
2022/10/02 11:40:44;;;;;;;;;;;20.10;90.20;;;;;;5073442;28;20385;-88
2022/10/02 11:43:28;;;;;;;;;;;20.10;91.10;;;;;;5075827;28;19912;-88
2022/10/02 11:46:12;;;;;;;;;;;20.00;91.10;;;;;;5075029;28;19904;-88
2022/10/02 11:48:56;;;;;;;;;;;20.00;91.60;;;;;;5075657;28;19911;-87
2022/10/02 11:51:21;;;;;;;;;;;20.00;91.60;;;;;;5075041;28;19964;-88
2022/10/02 11:53:47;;;;;;;;;;;20.10;92.30;;;;;;5075046;28;19962;-87
2022/10/02 11:56:31;;;;;;;;;;;20.20;92.20;;;;;;5074726;28;19904;-88
2022/10/02 11:59:02;;;;;;;;;;;20.40;90.80;;;;;;5074942;28;19927;-88
2022/10/02 12:01:33;;;;;;;;;;;20.50;90.00;;;;;;5075956;28;20391;-88
2022/10/02 12:04:07;;;;;;;;;;;20.60;91.10;;;;;;5074887;28;19918;-88
2022/10/02 12:06:36;;;;;;;;;;;20.60;90.50;;;;;;5075095;28;19951;-89
2022/10/02 12:09:22;;;;;;;;;;;20.40;89.40;;;;;;5075047;28;19928;-89
2022/10/02 12:12:06;;;;;;;;;;;20.20;90.60;;;;;;5074681;28;19905;-88
2022/10/02 12:14:41;;;;;;;;;;;20.10;91.10;;;;;;5074692;28;19951;-89
2022/10/02 12:17:22;;;;;;;;;;;19.90;90.70;;;;;;5076602;28;19912;-87
2022/10/02 12:28:54;;;;;;;;;;;18.40;93.40;;;;;;5075792;28;19913;-87
2022/10/02 12:31:36;;;;;;;;;;;18.20;93.50;;;;;;5074994;28;19930;-88
2022/10/02 12:34:09;;;;;;;;;;;18.00;94.20;;;;;;5075464;28;19912;-90
2022/10/02 12:36:35;;;;;;;;;;;17.80;95.30;;;;;;5074921;28;20505;-87
2022/10/02 12:39:07;;;;;;;;;;;17.90;95.40;;;;;;5074788;28;19908;-88
2022/10/02 12:42:04;;;;;;;;;;;18.10;93.70;;;;;;5073422;28;19987;-88
2022/10/02 12:44:50;;;;;;;;;;;18.20;93.60;;;;;;5052457;28;20011;-87
2022/10/02 12:47:15;;;;;;;;;;;18.30;93.40;;;;;;5074152;28;19904;-87
2022/10/02 12:50:02;;;;;;;;;;;18.30;93.00;;;;;;5073283;28;19911;-87
2022/10/02 12:52:31;;;;;;;;;;;18.40;93.90;;;;;;5036900;28;19912;-88
2022/10/02 12:55:05;;;;;;;;;;;18.50;94.00;;;;;;5037038;28;19920;-87
2022/10/02 13:00:16;;;;;;;;;;;18.50;93.40;;;;;;5054603;28;20372;-86
2022/10/02 13:02:42;;;;;;;;;;;18.30;93.50;;;;;;5036762;28;19987;-88
2022/10/02 13:05:34;;;;;;;;;;;18.20;93.50;;;;;;5037238;28;19912;-88
2022/10/02 13:08:08;;;;;;;;;;;18.20;93.80;;;;;;5023740;28;20376;-87
2022/10/02 13:10:39;;;;;;;;;;;18.10;93.70;;;;;;5036526;28;19908;-87
2022/10/02 13:13:23;;;;;;;;;;;18.20;94.80;;;;;;5036319;28;20020;-87
2022/10/02 13:16:09;;;;;;;;;;;18.30;95.00;;;;;;5054425;28;19952;-88
2022/10/02 13:18:44;;;;;;;;;;;18.30;93.60;;;;;;5023049;28;19995;-88
2022/10/02 13:21:18;;;;;;;;;;;18.30;93.60;;;;;;5036893;28;19904;-88
2022/10/02 13:23:57;;;;;;;;;;;18.30;95.50;;;;;;5036734;28;19919;-87
2022/10/02 13:26:22;;;;;;;;;;;18.20;94.80;;;;;;5036468;28;19987;-88
2022/10/02 13:28:58;;;;;;;;;;;18.20;95.30;;;;;;5036438;28;19940;-88
2022/10/02 13:31:38;;;;;;;;;;;18.20;96.20;;;;;;5036329;28;19911;-88
2022/10/02 13:34:13;;;;;;;;;;;18.20;97.70;;;;;;5053664;28;19990;-87
2022/10/02 13:36:45;;;;;;;;;;;18.30;98.30;;;;;;5036483;28;20383;-89
2022/10/02 13:39:18;;;;;;;;;;;18.40;98.40;;;;;;5036378;28;19904;-88
2022/10/02 13:41:50;;;;;;;;;;;18.50;98.20;;;;;;5036350;28;19931;-88
2022/10/02 13:44:45;;;;;;;;;;;18.30;99.20;;;;;;5035987;28;19912;-89
2022/10/02 13:47:11;;;;;;;;;;;18.20;99.60;;;;;;5036283;28;19908;-88
2022/10/02 13:50:03;;;;;;;;;;;18.10;99.90;;;;;;5036153;28;19911;-88
2022/10/02 13:52:28;;;;;;;;;;;17.90;99.90;;;;;;5034318;28;20011;-88
2022/10/02 13:55:03;;;;;;;;;;;17.70;99.90;;;;;;5041928;28;19955;-88
2022/10/02 13:57:38;;;;;;;;;;;17.60;99.90;;;;;;5034892;28;20381;-89
2022/10/02 14:00:08;;;;;;;;;;;17.50;99.90;;;;;;5035433;28;19991;-90
2022/10/02 14:02:34;;;;;;;;;;;17.40;99.90;;;;;;5018752;28;19936;-90
2022/10/02 14:05:17;;;;;;;;;;;17.20;99.90;;;;;;5033967;28;19905;-90
2022/10/02 14:07:52;;;;;;;;;;;17.00;99.90;;;;;;5027800;28;19913;-87
2022/10/02 14:10:33;;;;;;;;;;;16.90;99.90;;;;;;5029227;28;19905;-89
2022/10/02 14:12:59;;;;;;;;;;;16.80;99.90;;;;;;5016308;28;19920;-88
2022/10/02 14:15:37;;;;;;;;;;;16.80;99.90;;;;;;5016742;28;20000;-89
2022/10/02 14:18:15;;;;;;;;;;;16.70;99.90;;;;;;5016360;28;19905;-90
2022/10/02 14:20:47;;;;;;;;;;;16.70;99.90;;;;;;5016517;28;19912;-89
2022/10/02 14:23:25;;;;;;;;;;;16.70;99.90;;;;;;5015845;28;19944;-88
2022/10/02 14:25:59;;;;;;;;;;;16.70;99.90;;;;;;5034009;28;20003;-89
2022/10/02 14:28:32;;;;;;;;;;;16.70;99.90;;;;;;5032737;28;19963;-89
2022/10/02 14:31:06;;;;;;;;;;;16.70;99.90;;;;;;5037766;28;20011;-89
2022/10/02 14:33:44;;;;;;;;;;;16.60;99.90;;;;;;5050859;28;19924;-89
2022/10/02 14:36:29;;;;;;;;;;;16.70;99.90;;;;;;5035516;28;19909;-89
2022/10/02 14:38:57;;;;;;;;;;;16.70;99.90;;;;;;5035515;28;19947;-89
2022/10/02 14:41:23;;;;;;;;;;;16.70;99.90;;;;;;5034849;28;20274;-89
2022/10/02 14:43:54;;;;;;;;;;;16.60;99.90;;;;;;5035838;28;20050;-89
2022/10/02 14:46:27;;;;;;;;;;;16.60;99.90;;;;;;5035367;28;19904;-90
2022/10/02 14:49:10;;;;;;;;;;;16.50;99.90;;;;;;5034758;28;19909;-88
2022/10/02 14:51:50;;;;;;;;;;;16.40;99.90;;;;;;5052888;28;19916;-89
2022/10/02 14:54:28;;;;;;;;;;;16.40;99.90;;;;;;5035068;28;20365;-90
2022/10/02 14:57:12;;;;;;;;;;;16.40;99.90;;;;;;5035374;28;19912;-90
2022/10/02 14:59:54;;;;;;;;;;;16.30;99.90;;;;;;5034816;28;19954;-89
2022/10/02 15:02:47;;;;;;;;;;;16.40;99.90;;;;;;5015302;28;20336;-90
2022/10/02 15:05:33;;;;;;;;;;;16.30;99.90;;;;;;5016749;28;19905;-90
2022/10/02 15:07:59;;;;;;;;;;;16.30;99.90;;;;;;5019286;28;19912;-90